KSMO/SMO METAR and TAF weather

Enter ICAO airport designator
Station Type Date Time Source
KSMO METAR 2020/12/05 04:51 UTC NOAA

KSMO 050451Z 07003KT 10SM CLR 11/04 A3017 RMK AO2 SLP214 T01060044


Station Type Date Time Source
KSMO Decoded METAR 2020/12/05 04:51 UTC NOAA

SANTA MONICA MUNICIPAL AIRPORT , CA, United States (KSMO) 34-01N 118-27W 57M
Dec 04, 2020 - 11:51 PM EST / 2020.12.05 0451 UTC
Wind: from the ENE (070 degrees) at 3 MPH (3 KT):0
Visibility: 10 mile(s):0
Sky conditions: clear
Temperature: 51.1 F (10.6 C)
Dew Point: 39.9 F (4.4 C)
Relative Humidity: 65%
Pressure (altimeter): 30.17 in. Hg (1021 hPa)
ob: KSMO 050451Z 07003KT 10SM CLR 11/04 A3017 RMK AO2 SLP214 T01060044
cycle: 5

Station Type Date Time Source
KSMO TAF 2020/12/05 06:33 UTC NOAA

TAF KSMO 050533Z 0506/0606 VRB03KT P6SM SKC
FM052000 23006KT P6SM SKC
FM060200 VRB03KT P6SM SKC

Example: see airport list